sensor_id;sensor_type;location;lat;lon;timestamp;noise_LAeq;noise_LA_min;noise_LA_max;noise_LA01;noise_LA95
37223;Laerm;28026;48.562;14.440;2024-01-25T00:02:22;56.32;34.31;84.36;;
37223;Laerm;28026;48.562;14.440;2024-01-25T00:04:52;51.63;32.93;74.55;;
37223;Laerm;28026;48.562;14.440;2024-01-25T00:07:23;61.45;34.69;88.14;;
37223;Laerm;28026;48.562;14.440;2024-01-25T00:09:54;58.76;34.69;83.98;;
37223;Laerm;28026;48.562;14.440;2024-01-25T00:12:25;53.85;33.90;78.51;;
37223;Laerm;28026;48.562;14.440;2024-01-25T00:14:56;59.07;35.04;87.99;;
37223;Laerm;28026;48.562;14.440;2024-01-25T00:17:27;47.41;33.90;69.26;;
37223;Laerm;28026;48.562;14.440;2024-01-25T00:19:58;48.88;34.69;74.71;;
37223;Laerm;28026;48.562;14.440;2024-01-25T00:22:28;65.47;35.94;92.06;;
37223;Laerm;28026;48.562;14.440;2024-01-25T00:24:59;62.98;34.31;87.08;;
37223;Laerm;28026;48.562;14.440;2024-01-25T00:27:30;45.55;32.35;69.54;;
37223;Laerm;28026;48.562;14.440;2024-01-25T00:30:01;58.28;33.90;80.61;;
37223;Laerm;28026;48.562;14.440;2024-01-25T00:32:32;52.10;33.44;77.11;;
37223;Laerm;28026;48.562;14.440;2024-01-25T00:35:04;43.04;34.31;70.59;;
37223;Laerm;28026;48.562;14.440;2024-01-25T00:37:36;58.37;33.90;86.37;;
37223;Laerm;28026;48.562;14.440;2024-01-25T00:40:08;49.61;34.31;73.20;;
37223;Laerm;28026;48.562;14.440;2024-01-25T00:42:45;50.10;35.04;76.58;;
37223;Laerm;28026;48.562;14.440;2024-01-25T00:45:21;59.57;34.31;83.78;;
37223;Laerm;28026;48.562;14.440;2024-01-25T00:47:53;55.72;34.31;85.47;;
37223;Laerm;28026;48.562;14.440;2024-01-25T00:50:25;46.50;34.31;73.44;;
37223;Laerm;28026;48.562;14.440;2024-01-25T00:52:56;59.82;32.93;88.93;;
37223;Laerm;28026;48.562;14.440;2024-01-25T00:55:28;51.22;35.36;81.71;;
37223;Laerm;28026;48.562;14.440;2024-01-25T00:58:00;62.04;34.69;87.58;;
37223;Laerm;28026;48.562;14.440;2024-01-25T01:00:31;55.58;33.90;89.92;;
37223;Laerm;28026;48.562;14.440;2024-01-25T01:03:04;49.00;34.69;77.66;;
37223;Laerm;28026;48.562;14.440;2024-01-25T01:05:36;49.64;34.31;78.67;;
37223;Laerm;28026;48.562;14.440;2024-01-25T01:08:08;59.83;36.20;85.06;;
37223;Laerm;28026;48.562;14.440;2024-01-25T01:10:39;62.83;35.36;91.21;;
37223;Laerm;28026;48.562;14.440;2024-01-25T01:13:10;64.79;35.94;90.57;;
37223;Laerm;28026;48.562;14.440;2024-01-25T01:15:40;61.09;36.20;83.76;;
37223;Laerm;28026;48.562;14.440;2024-01-25T01:18:11;53.95;36.20;83.55;;
37223;Laerm;28026;48.562;14.440;2024-01-25T01:20:42;55.18;35.94;79.77;;
37223;Laerm;28026;48.562;14.440;2024-01-25T01:23:13;58.78;35.66;84.80;;
37223;Laerm;28026;48.562;14.440;2024-01-25T01:25:44;63.76;37.12;92.64;;
37223;Laerm;28026;48.562;14.440;2024-01-25T01:28:15;58.94;35.36;83.57;;
37223;Laerm;28026;48.562;14.440;2024-01-25T01:30:46;46.33;36.69;71.78;;
37223;Laerm;28026;48.562;14.440;2024-01-25T01:33:17;54.93;35.59;86.18;;
37223;Laerm;28026;48.562;14.440;2024-01-25T01:35:47;57.48;35.66;82.48;;
37223;Laerm;28026;48.562;14.440;2024-01-25T01:38:18;66.26;36.45;91.62;;
37223;Laerm;28026;48.562;14.440;2024-01-25T01:40:49;69.81;37.88;93.76;;
37223;Laerm;28026;48.562;14.440;2024-01-25T01:43:21;55.22;35.36;80.22;;
37223;Laerm;28026;48.562;14.440;2024-01-25T01:46:07;72.58;37.70;102.96;;
37223;Laerm;28026;48.562;14.440;2024-01-25T01:48:41;65.03;37.52;91.40;;
37223;Laerm;28026;48.562;14.440;2024-01-25T01:51:12;52.96;36.91;80.45;;
37223;Laerm;28026;48.562;14.440;2024-01-25T01:53:43;71.30;38.05;94.94;;
37223;Laerm;28026;48.562;14.440;2024-01-25T01:56:15;68.27;35.66;92.77;;
37223;Laerm;28026;48.562;14.440;2024-01-25T01:58:48;66.84;35.04;91.32;;
37223;Laerm;28026;48.562;14.440;2024-01-25T02:01:20;54.23;34.69;85.46;;
37223;Laerm;28026;48.562;14.440;2024-01-25T02:03:52;48.33;33.90;75.50;;
37223;Laerm;28026;48.562;14.440;2024-01-25T02:06:27;45.00;33.55;69.90;;
37223;Laerm;28026;48.562;14.440;2024-01-25T02:08:58;60.12;35.04;87.04;;
37223;Laerm;28026;48.562;14.440;2024-01-25T02:11:29;53.45;34.69;80.95;;
37223;Laerm;28026;48.562;14.440;2024-01-25T02:14:00;48.83;34.31;71.76;;
37223;Laerm;28026;48.562;14.440;2024-01-25T02:16:31;51.17;33.90;79.31;;
37223;Laerm;28026;48.562;14.440;2024-01-25T02:19:02;63.51;35.04;88.59;;
37223;Laerm;28026;48.562;14.440;2024-01-25T02:21:33;54.71;34.69;79.06;;
37223;Laerm;28026;48.562;14.440;2024-01-25T02:24:04;49.00;34.31;75.47;;
37223;Laerm;28026;48.562;14.440;2024-01-25T02:26:36;42.08;32.35;70.75;;
37223;Laerm;28026;48.562;14.440;2024-01-25T02:29:07;60.13;35.04;85.39;;
37223;Laerm;28026;48.562;14.440;2024-01-25T02:31:38;51.16;33.44;75.38;;
37223;Laerm;28026;48.562;14.440;2024-01-25T02:34:09;57.75;34.69;80.34;;
37223;Laerm;28026;48.562;14.440;2024-01-25T02:36:40;62.91;35.04;88.16;;
37223;Laerm;28026;48.562;14.440;2024-01-25T02:39:11;42.98;34.69;69.95;;
37223;Laerm;28026;48.562;14.440;2024-01-25T02:41:42;47.12;34.69;71.82;;
37223;Laerm;28026;48.562;14.440;2024-01-25T02:44:13;63.00;34.31;87.17;;
37223;Laerm;28026;48.562;14.440;2024-01-25T02:46:44;61.96;37.52;88.48;;
37223;Laerm;28026;48.562;14.440;2024-01-25T02:49:16;52.78;36.20;82.15;;
37223;Laerm;28026;48.562;14.440;2024-01-25T02:51:47;57.00;35.66;84.57;;
37223;Laerm;28026;48.562;14.440;2024-01-25T02:54:18;56.59;35.94;87.26;;
37223;Laerm;28026;48.562;14.440;2024-01-25T02:56:49;54.00;37.32;83.68;;
37223;Laerm;28026;48.562;14.440;2024-01-25T02:59:20;67.62;37.52;89.66;;
37223;Laerm;28026;48.562;14.440;2024-01-25T03:01:53;57.80;36.20;84.01;;
37223;Laerm;28026;48.562;14.440;2024-01-25T03:04:24;56.12;35.04;86.65;;
37223;Laerm;28026;48.562;14.440;2024-01-25T03:06:55;51.33;36.20;75.10;;
37223;Laerm;28026;48.562;14.440;2024-01-25T03:09:26;62.95;36.91;89.15;;
37223;Laerm;28026;48.562;14.440;2024-01-25T03:11:58;53.47;36.56;83.88;;
37223;Laerm;28026;48.562;14.440;2024-01-25T03:14:29;58.57;36.91;85.18;;
37223;Laerm;28026;48.562;14.440;2024-01-25T03:16:59;59.02;35.66;90.75;;
37223;Laerm;28026;48.562;14.440;2024-01-25T03:19:30;57.57;35.94;85.51;;
37223;Laerm;28026;48.562;14.440;2024-01-25T03:22:01;57.78;36.20;85.03;;
37223;Laerm;28026;48.562;14.440;2024-01-25T03:24:32;47.50;36.69;69.74;;
37223;Laerm;28026;48.562;14.440;2024-01-25T03:27:04;57.26;37.17;81.81;;
37223;Laerm;28026;48.562;14.440;2024-01-25T03:29:34;61.14;36.45;87.85;;
37223;Laerm;28026;48.562;14.440;2024-01-25T03:32:05;53.17;36.91;81.20;;
37223;Laerm;28026;48.562;14.440;2024-01-25T03:34:36;64.62;37.88;90.74;;
37223;Laerm;28026;48.562;14.440;2024-01-25T03:37:07;55.72;35.94;80.68;;
37223;Laerm;28026;48.562;14.440;2024-01-25T03:39:38;62.51;36.20;87.14;;
37223;Laerm;28026;48.562;14.440;2024-01-25T03:42:09;50.30;35.66;74.28;;
37223;Laerm;28026;48.562;14.440;2024-01-25T03:44:40;64.93;38.67;95.74;;
37223;Laerm;28026;48.562;14.440;2024-01-25T03:47:13;48.89;35.94;73.17;;
37223;Laerm;28026;48.562;14.440;2024-01-25T03:49:45;58.36;36.45;84.58;;
37223;Laerm;28026;48.562;14.440;2024-01-25T03:52:15;55.79;36.20;80.94;;
37223;Laerm;28026;48.562;14.440;2024-01-25T03:54:46;50.89;35.66;78.66;;
37223;Laerm;28026;48.562;14.440;2024-01-25T03:57:17;44.04;33.44;67.32;;
37223;Laerm;28026;48.562;14.440;2024-01-25T03:59:48;56.75;35.66;88.66;;
37223;Laerm;28026;48.562;14.440;2024-01-25T04:02:19;61.31;34.69;89.44;;
37223;Laerm;28026;48.562;14.440;2024-01-25T04:04:50;49.02;35.04;73.95;;
37223;Laerm;28026;48.562;14.440;2024-01-25T04:07:21;57.15;35.36;81.73;;
37223;Laerm;28026;48.562;14.440;2024-01-25T04:09:51;48.04;36.69;70.84;;
37223;Laerm;28026;48.562;14.440;2024-01-25T04:12:22;59.64;35.94;85.30;;
37223;Laerm;28026;48.562;14.440;2024-01-25T04:14:55;57.99;35.94;86.08;;
37223;Laerm;28026;48.562;14.440;2024-01-25T04:17:26;48.38;37.52;74.60;;
37223;Laerm;28026;48.562;14.440;2024-01-25T04:19:57;66.23;36.45;92.67;;
37223;Laerm;28026;48.562;14.440;2024-01-25T04:22:28;56.49;35.94;81.43;;
37223;Laerm;28026;48.562;14.440;2024-01-25T04:24:58;56.35;38.37;81.88;;
37223;Laerm;28026;48.562;14.440;2024-01-25T04:27:29;51.68;37.52;74.76;;
37223;Laerm;28026;48.562;14.440;2024-01-25T04:30:02;53.70;36.69;79.18;;
37223;Laerm;28026;48.562;14.440;2024-01-25T04:32:34;65.14;39.46;93.73;;
37223;Laerm;28026;48.562;14.440;2024-01-25T04:35:06;58.69;38.81;89.02;;
37223;Laerm;28026;48.562;14.440;2024-01-25T04:37:36;58.54;37.32;83.24;;
37223;Laerm;28026;48.562;14.440;2024-01-25T04:40:08;52.97;38.37;80.70;;
37223;Laerm;28026;48.562;14.440;2024-01-25T04:42:39;55.96;36.20;87.69;;
37223;Laerm;28026;48.562;14.440;2024-01-25T04:45:10;56.16;35.04;83.77;;
37223;Laerm;28026;48.562;14.440;2024-01-25T04:47:41;50.74;36.45;77.85;;
37223;Laerm;28026;48.562;14.440;2024-01-25T04:50:12;61.67;38.74;88.07;;
37223;Laerm;28026;48.562;14.440;2024-01-25T04:52:43;57.03;37.52;82.51;;
37223;Laerm;28026;48.562;14.440;2024-01-25T04:55:14;47.92;37.35;71.65;;
37223;Laerm;28026;48.562;14.440;2024-01-25T04:57:44;55.94;39.34;81.61;;
37223;Laerm;28026;48.562;14.440;2024-01-25T05:00:16;47.12;38.52;73.43;;
37223;Laerm;28026;48.562;14.440;2024-01-25T05:02:48;57.48;39.34;85.90;;
37223;Laerm;28026;48.562;14.440;2024-01-25T05:05:19;50.40;37.70;77.48;;
37223;Laerm;28026;48.562;14.440;2024-01-25T05:07:51;51.29;35.94;76.31;;
37223;Laerm;28026;48.562;14.440;2024-01-25T05:10:21;56.29;38.52;85.05;;
37223;Laerm;28026;48.562;14.440;2024-01-25T05:12:53;53.06;36.45;78.16;;
37223;Laerm;28026;48.562;14.440;2024-01-25T05:15:24;49.91;36.20;73.57;;
37223;Laerm;28026;48.562;14.440;2024-01-25T05:17:55;52.56;35.36;84.95;;
37223;Laerm;28026;48.562;14.440;2024-01-25T05:20:26;51.82;35.36;83.90;;
37223;Laerm;28026;48.562;14.440;2024-01-25T05:23:04;43.44;36.20;66.23;;
37223;Laerm;28026;48.562;14.440;2024-01-25T05:25:35;43.33;35.66;64.40;;
37223;Laerm;28026;48.562;14.440;2024-01-25T05:28:06;60.87;36.91;86.18;;
37223;Laerm;28026;48.562;14.440;2024-01-25T05:30:37;55.99;35.94;79.84;;
37223;Laerm;28026;48.562;14.440;2024-01-25T05:33:08;43.05;36.20;63.21;;
37223;Laerm;28026;48.562;14.440;2024-01-25T05:35:39;48.94;35.36;75.97;;
37223;Laerm;28026;48.562;14.440;2024-01-25T05:38:10;52.15;36.69;81.04;;
37223;Laerm;28026;48.562;14.440;2024-01-25T05:40:51;57.62;37.52;83.14;;
37223;Laerm;28026;48.562;14.440;2024-01-25T05:43:22;64.48;36.69;88.94;;
37223;Laerm;28026;48.562;14.440;2024-01-25T05:45:52;48.05;38.81;74.64;;
37223;Laerm;28026;48.562;14.440;2024-01-25T05:48:23;44.54;37.12;63.82;;
37223;Laerm;28026;48.562;14.440;2024-01-25T05:50:54;48.38;36.20;77.67;;
37223;Laerm;28026;48.562;14.440;2024-01-25T05:53:25;59.11;35.36;92.07;;
37223;Laerm;28026;48.562;14.440;2024-01-25T05:55:56;44.03;35.94;68.65;;
37223;Laerm;28026;48.562;14.440;2024-01-25T05:58:27;41.16;35.36;58.48;;
37223;Laerm;28026;48.562;14.440;2024-01-25T06:00:58;43.33;35.66;64.79;;
37223;Laerm;28026;48.562;14.440;2024-01-25T06:03:29;45.20;35.94;76.38;;
37223;Laerm;28026;48.562;14.440;2024-01-25T06:06:00;40.61;36.45;55.85;;
37223;Laerm;28026;48.562;14.440;2024-01-25T06:08:30;45.55;36.34;70.64;;
37223;Laerm;28026;48.562;14.440;2024-01-25T06:11:01;51.39;36.91;81.26;;
37223;Laerm;28026;48.562;14.440;2024-01-25T06:13:32;50.96;37.52;80.70;;
37223;Laerm;28026;48.562;14.440;2024-01-25T06:16:04;51.38;36.45;77.99;;
37223;Laerm;28026;48.562;14.440;2024-01-25T06:18:34;45.19;35.36;70.50;;
37223;Laerm;28026;48.562;14.440;2024-01-25T06:21:05;47.95;35.36;70.65;;
37223;Laerm;28026;48.562;14.440;2024-01-25T06:23:36;57.62;36.91;88.45;;
37223;Laerm;28026;48.562;14.440;2024-01-25T06:26:07;62.64;36.20;86.18;;
37223;Laerm;28026;48.562;14.440;2024-01-25T06:28:38;49.24;35.94;77.62;;
37223;Laerm;28026;48.562;14.440;2024-01-25T06:31:09;51.21;36.69;78.20;;
37223;Laerm;28026;48.562;14.440;2024-01-25T06:33:40;53.40;36.69;82.33;;
37223;Laerm;28026;48.562;14.440;2024-01-25T06:36:11;60.80;36.45;92.67;;
37223;Laerm;28026;48.562;14.440;2024-01-25T06:38:42;53.11;36.20;78.01;;
37223;Laerm;28026;48.562;14.440;2024-01-25T06:41:13;49.27;37.32;72.23;;
37223;Laerm;28026;48.562;14.440;2024-01-25T06:43:44;52.52;37.12;79.26;;
37223;Laerm;28026;48.562;14.440;2024-01-25T06:46:15;44.69;37.70;70.58;;
37223;Laerm;28026;48.562;14.440;2024-01-25T06:48:45;53.47;38.37;79.44;;
37223;Laerm;28026;48.562;14.440;2024-01-25T06:51:16;51.83;37.88;81.88;;
37223;Laerm;28026;48.562;14.440;2024-01-25T06:53:47;54.11;36.91;84.04;;
37223;Laerm;28026;48.562;14.440;2024-01-25T06:56:18;45.33;35.66;67.83;;
37223;Laerm;28026;48.562;14.440;2024-01-25T06:58:49;49.25;36.20;77.40;;
37223;Laerm;28026;48.562;14.440;2024-01-25T07:01:21;58.21;33.90;86.47;;
37223;Laerm;28026;48.562;14.440;2024-01-25T07:03:53;50.58;36.20;76.68;;
37223;Laerm;28026;48.562;14.440;2024-01-25T07:06:24;54.10;36.20;81.71;;
37223;Laerm;28026;48.562;14.440;2024-01-25T07:08:55;42.70;36.20;62.58;;
37223;Laerm;28026;48.562;14.440;2024-01-25T07:11:26;44.12;35.66;70.12;;
37223;Laerm;28026;48.562;14.440;2024-01-25T07:13:56;41.87;34.69;55.45;;
37223;Laerm;28026;48.562;14.440;2024-01-25T07:16:27;51.19;34.69;75.48;;
37223;Laerm;28026;48.562;14.440;2024-01-25T07:19:01;41.20;34.69;60.12;;
37223;Laerm;28026;48.562;14.440;2024-01-25T07:21:32;41.89;34.69;61.95;;
37223;Laerm;28026;48.562;14.440;2024-01-25T07:24:04;43.59;35.66;66.68;;
37223;Laerm;28026;48.562;14.440;2024-01-25T07:26:35;39.68;33.44;50.02;;
37223;Laerm;28026;48.562;14.440;2024-01-25T07:29:07;43.47;36.20;64.15;;
37223;Laerm;28026;48.562;14.440;2024-01-25T07:31:38;41.28;34.31;52.37;;
37223;Laerm;28026;48.562;14.440;2024-01-25T07:34:08;39.59;35.66;46.05;;
37223;Laerm;28026;48.562;14.440;2024-01-25T07:36:39;47.39;34.31;75.71;;
37223;Laerm;28026;48.562;14.440;2024-01-25T07:39:10;50.44;36.20;76.85;;
37223;Laerm;28026;48.562;14.440;2024-01-25T07:41:42;52.98;35.04;82.13;;
37223;Laerm;28026;48.562;14.440;2024-01-25T07:44:13;47.29;35.36;71.68;;
37223;Laerm;28026;48.562;14.440;2024-01-25T07:46:44;51.41;36.20;79.28;;
37223;Laerm;28026;48.562;14.440;2024-01-25T07:49:14;47.90;35.04;75.14;;
37223;Laerm;28026;48.562;14.440;2024-01-25T07:51:45;50.67;37.52;75.24;;
37223;Laerm;28026;48.562;14.440;2024-01-25T07:54:17;54.94;35.94;78.91;;
37223;Laerm;28026;48.562;14.440;2024-01-25T07:56:48;51.48;36.69;78.51;;
37223;Laerm;28026;48.562;14.440;2024-01-25T07:59:19;52.64;35.66;77.43;;
37223;Laerm;28026;48.562;14.440;2024-01-25T08:01:50;43.40;34.69;67.18;;
37223;Laerm;28026;48.562;14.440;2024-01-25T08:04:21;55.61;34.31;80.41;;
37223;Laerm;28026;48.562;14.440;2024-01-25T08:06:52;49.61;36.45;71.83;;
37223;Laerm;28026;48.562;14.440;2024-01-25T08:09:23;52.26;37.12;77.72;;
37223;Laerm;28026;48.562;14.440;2024-01-25T08:11:54;51.97;32.00;78.53;;
37223;Laerm;28026;48.562;14.440;2024-01-25T08:14:25;40.99;34.31;64.77;;
37223;Laerm;28026;48.562;14.440;2024-01-25T08:16:56;66.23;36.20;89.72;;
37223;Laerm;28026;48.562;14.440;2024-01-25T08:19:27;41.28;35.36;63.04;;
37223;Laerm;28026;48.562;14.440;2024-01-25T08:21:58;52.85;36.20;78.04;;
37223;Laerm;28026;48.562;14.440;2024-01-25T08:24:30;56.52;35.66;83.89;;
37223;Laerm;28026;48.562;14.440;2024-01-25T08:27:01;49.55;36.45;80.40;;
37223;Laerm;28026;48.562;14.440;2024-01-25T08:29:32;49.96;35.66;76.23;;
37223;Laerm;28026;48.562;14.440;2024-01-25T08:32:03;52.43;39.34;75.65;;
37223;Laerm;28026;48.562;14.440;2024-01-25T08:34:34;46.89;37.70;73.53;;
37223;Laerm;28026;48.562;14.440;2024-01-25T08:37:05;47.24;36.91;71.19;;
37223;Laerm;28026;48.562;14.440;2024-01-25T08:39:36;53.29;38.67;81.08;;
37223;Laerm;28026;48.562;14.440;2024-01-25T08:42:07;51.29;39.21;75.85;;
37223;Laerm;28026;48.562;14.440;2024-01-25T08:44:38;55.60;36.69;86.53;;
37223;Laerm;28026;48.562;14.440;2024-01-25T08:47:10;42.74;35.94;65.28;;
37223;Laerm;28026;48.562;14.440;2024-01-25T08:49:41;55.04;35.66;82.19;;
37223;Laerm;28026;48.562;14.440;2024-01-25T08:52:12;58.53;35.66;83.63;;
37223;Laerm;28026;48.562;14.440;2024-01-25T08:54:42;65.68;35.66;93.00;;
37223;Laerm;28026;48.562;14.440;2024-01-25T08:57:14;55.47;36.20;83.58;;
37223;Laerm;28026;48.562;14.440;2024-01-25T08:59:46;47.45;35.66;69.19;;
37223;Laerm;28026;48.562;14.440;2024-01-25T09:02:17;49.86;34.31;81.47;;
37223;Laerm;28026;48.562;14.440;2024-01-25T09:04:49;64.47;38.52;88.55;;
37223;Laerm;28026;48.562;14.440;2024-01-25T09:07:21;51.40;37.32;75.99;;
37223;Laerm;28026;48.562;14.440;2024-01-25T09:09:52;64.71;37.88;94.21;;
37223;Laerm;28026;48.562;14.440;2024-01-25T09:12:22;57.09;40.13;85.28;;
37223;Laerm;28026;48.562;14.440;2024-01-25T09:14:53;52.59;38.05;82.89;;
37223;Laerm;28026;48.562;14.440;2024-01-25T09:17:24;51.19;39.58;73.97;;
37223;Laerm;28026;48.562;14.440;2024-01-25T09:19:55;61.96;38.37;85.20;;
37223;Laerm;28026;48.562;14.440;2024-01-25T09:22:29;58.13;37.70;84.66;;
37223;Laerm;28026;48.562;14.440;2024-01-25T09:25:00;55.97;36.98;85.04;;
37223;Laerm;28026;48.562;14.440;2024-01-25T09:27:31;51.66;36.45;79.07;;
37223;Laerm;28026;48.562;14.440;2024-01-25T09:30:02;51.95;39.21;77.10;;
37223;Laerm;28026;48.562;14.440;2024-01-25T09:32:33;58.51;37.52;81.47;;
37223;Laerm;28026;48.562;14.440;2024-01-25T09:35:04;47.55;36.91;69.33;;
37223;Laerm;28026;48.562;14.440;2024-01-25T09:37:35;62.52;35.94;94.02;;
37223;Laerm;28026;48.562;14.440;2024-01-25T09:40:07;52.73;38.05;79.24;;
37223;Laerm;28026;48.562;14.440;2024-01-25T09:42:39;55.31;37.70;86.02;;
37223;Laerm;28026;48.562;14.440;2024-01-25T09:45:17;47.85;37.88;71.41;;
37223;Laerm;28026;48.562;14.440;2024-01-25T09:47:49;48.41;36.20;72.08;;
37223;Laerm;28026;48.562;14.440;2024-01-25T09:50:20;61.17;37.52;88.12;;
37223;Laerm;28026;48.562;14.440;2024-01-25T09:52:54;60.96;38.52;85.50;;
37223;Laerm;28026;48.562;14.440;2024-01-25T09:55:27;59.12;35.94;81.35;;
37223;Laerm;28026;48.562;14.440;2024-01-25T09:57:58;57.85;37.12;86.21;;
37223;Laerm;28026;48.562;14.440;2024-01-25T10:00:29;57.22;36.69;88.45;;
37223;Laerm;28026;48.562;14.440;2024-01-25T10:02:59;56.27;36.45;80.68;;
37223;Laerm;28026;48.562;14.440;2024-01-25T10:05:30;57.51;37.32;84.93;;
37223;Laerm;28026;48.562;14.440;2024-01-25T10:08:01;48.45;36.20;72.97;;
37223;Laerm;28026;48.562;14.440;2024-01-25T10:10:33;62.20;37.70;90.14;;
37223;Laerm;28026;48.562;14.440;2024-01-25T10:13:05;65.60;38.32;92.33;;
37223;Laerm;28026;48.562;14.440;2024-01-25T10:15:36;65.97;38.21;88.48;;
37223;Laerm;28026;48.562;14.440;2024-01-25T10:18:08;57.07;38.21;84.49;;
37223;Laerm;28026;48.562;14.440;2024-01-25T10:20:43;62.51;38.74;89.20;;
37223;Laerm;28026;48.562;14.440;2024-01-25T10:23:14;68.19;38.37;95.71;;
37223;Laerm;28026;48.562;14.440;2024-01-25T10:25:46;46.91;36.91;76.97;;
37223;Laerm;28026;48.562;14.440;2024-01-25T10:28:17;52.95;38.37;82.28;;
37223;Laerm;28026;48.562;14.440;2024-01-25T10:30:50;64.86;37.88;89.17;;
37223;Laerm;28026;48.562;14.440;2024-01-25T10:33:22;52.53;37.70;80.56;;
37223;Laerm;28026;48.562;14.440;2024-01-25T10:36:01;53.71;38.05;77.71;;
37223;Laerm;28026;48.562;14.440;2024-01-25T10:38:35;58.01;37.53;83.76;;
37223;Laerm;28026;48.562;14.440;2024-01-25T10:41:06;52.54;35.36;82.91;;
37223;Laerm;28026;48.562;14.440;2024-01-25T10:43:37;55.79;35.04;86.62;;
37223;Laerm;28026;48.562;14.440;2024-01-25T10:46:09;59.55;38.05;88.08;;
37223;Laerm;28026;48.562;14.440;2024-01-25T10:48:42;57.27;38.05;87.68;;
37223;Laerm;28026;48.562;14.440;2024-01-25T10:51:15;55.81;38.60;80.60;;
37223;Laerm;28026;48.562;14.440;2024-01-25T10:53:50;72.44;38.37;98.34;;
37223;Laerm;28026;48.562;14.440;2024-01-25T10:56:21;61.61;37.32;91.74;;
37223;Laerm;28026;48.562;14.440;2024-01-25T10:58:52;61.99;36.69;89.15;;
37223;Laerm;28026;48.562;14.440;2024-01-25T11:01:24;67.80;37.32;92.55;;
37223;Laerm;28026;48.562;14.440;2024-01-25T11:03:55;63.11;39.58;87.92;;
37223;Laerm;28026;48.562;14.440;2024-01-25T11:06:28;60.11;38.52;85.91;;
37223;Laerm;28026;48.562;14.440;2024-01-25T11:09:07;55.98;37.70;80.47;;
37223;Laerm;28026;48.562;14.440;2024-01-25T11:11:46;59.87;37.12;87.54;;
37223;Laerm;28026;48.562;14.440;2024-01-25T11:14:20;49.26;38.21;75.63;;
37223;Laerm;28026;48.562;14.440;2024-01-25T11:16:50;61.10;39.08;90.03;;
37223;Laerm;28026;48.562;14.440;2024-01-25T11:19:22;67.92;38.81;91.15;;
37223;Laerm;28026;48.562;14.440;2024-01-25T11:21:53;51.09;37.70;77.35;;
37223;Laerm;28026;48.562;14.440;2024-01-25T11:24:25;53.00;37.88;80.62;;
37223;Laerm;28026;48.562;14.440;2024-01-25T11:27:01;56.54;37.52;83.77;;
37223;Laerm;28026;48.562;14.440;2024-01-25T11:29:32;62.08;37.52;91.63;;
37223;Laerm;28026;48.562;14.440;2024-01-25T11:32:04;64.21;38.81;89.14;;
37223;Laerm;28026;48.562;14.440;2024-01-25T11:34:36;61.61;38.52;90.70;;
37223;Laerm;28026;48.562;14.440;2024-01-25T11:37:07;66.25;37.87;91.05;;
37223;Laerm;28026;48.562;14.440;2024-01-25T11:39:37;72.01;38.81;93.17;;
37223;Laerm;28026;48.562;14.440;2024-01-25T11:42:09;73.49;38.21;98.65;;
37223;Laerm;28026;48.562;14.440;2024-01-25T11:44:39;61.37;37.32;86.85;;
37223;Laerm;28026;48.562;14.440;2024-01-25T11:47:10;61.74;38.21;86.19;;
37223;Laerm;28026;48.562;14.440;2024-01-25T11:49:41;65.58;39.34;93.54;;
37223;Laerm;28026;48.562;14.440;2024-01-25T11:52:12;69.07;39.08;95.04;;
37223;Laerm;28026;48.562;14.440;2024-01-25T11:54:43;58.61;38.21;85.04;;
37223;Laerm;28026;48.562;14.440;2024-01-25T11:57:15;70.67;38.21;100.09;;
37223;Laerm;28026;48.562;14.440;2024-01-25T11:59:46;61.02;37.52;90.37;;
37223;Laerm;28026;48.562;14.440;2024-01-25T12:02:17;62.95;36.69;87.43;;
37223;Laerm;28026;48.562;14.440;2024-01-25T12:04:49;68.13;38.32;96.03;;
37223;Laerm;28026;48.562;14.440;2024-01-25T12:07:22;57.90;38.37;86.47;;
37223;Laerm;28026;48.562;14.440;2024-01-25T12:10:04;55.94;36.69;81.81;;
37223;Laerm;28026;48.562;14.440;2024-01-25T12:12:37;56.60;37.88;83.68;;
37223;Laerm;28026;48.562;14.440;2024-01-25T12:15:11;62.73;38.37;86.55;;
37223;Laerm;28026;48.562;14.440;2024-01-25T12:17:42;64.07;38.52;95.61;;
37223;Laerm;28026;48.562;14.440;2024-01-25T12:20:13;65.67;37.12;92.33;;
37223;Laerm;28026;48.562;14.440;2024-01-25T12:22:48;56.39;39.08;79.85;;
37223;Laerm;28026;48.562;14.440;2024-01-25T12:25:19;68.97;38.95;96.48;;
37223;Laerm;28026;48.562;14.440;2024-01-25T12:27:50;63.14;38.21;87.08;;
37223;Laerm;28026;48.562;14.440;2024-01-25T12:30:21;76.30;40.03;100.98;;
37223;Laerm;28026;48.562;14.440;2024-01-25T12:32:51;68.28;38.67;95.41;;
37223;Laerm;28026;48.562;14.440;2024-01-25T12:35:22;72.79;37.70;97.47;;
37223;Laerm;28026;48.562;14.440;2024-01-25T12:37:53;56.95;39.34;84.45;;
37223;Laerm;28026;48.562;14.440;2024-01-25T12:40:24;57.42;38.52;80.96;;
37223;Laerm;28026;48.562;14.440;2024-01-25T12:42:55;56.64;37.32;83.08;;
37223;Laerm;28026;48.562;14.440;2024-01-25T12:45:26;65.51;38.67;94.48;;
37223;Laerm;28026;48.562;14.440;2024-01-25T12:47:56;64.86;39.46;96.71;;
37223;Laerm;28026;48.562;14.440;2024-01-25T12:50:27;62.40;37.88;88.08;;
37223;Laerm;28026;48.562;14.440;2024-01-25T12:52:58;71.25;38.67;96.75;;
37223;Laerm;28026;48.562;14.440;2024-01-25T12:55:30;52.54;38.81;80.04;;
37223;Laerm;28026;48.562;14.440;2024-01-25T12:58:02;56.78;39.08;82.95;;
37223;Laerm;28026;48.562;14.440;2024-01-25T13:25:24;69.32;38.67;97.45;;
37223;Laerm;28026;48.562;14.440;2024-01-25T13:27:56;53.95;38.37;77.62;;
37223;Laerm;28026;48.562;14.440;2024-01-25T13:30:27;56.25;38.21;84.72;;
37223;Laerm;28026;48.562;14.440;2024-01-25T13:32:57;56.84;39.58;81.82;;
37223;Laerm;28026;48.562;14.440;2024-01-25T13:35:28;59.80;38.52;88.66;;
37223;Laerm;28026;48.562;14.440;2024-01-25T13:37:59;55.72;37.88;82.93;;
37223;Laerm;28026;48.562;14.440;2024-01-25T13:40:32;62.33;38.67;95.84;;
37223;Laerm;28026;48.562;14.440;2024-01-25T13:43:03;59.98;39.92;85.37;;
37223;Laerm;28026;48.562;14.440;2024-01-25T13:45:34;62.40;38.21;86.75;;
37223;Laerm;28026;48.562;14.440;2024-01-25T13:48:05;57.07;37.70;83.06;;
37223;Laerm;28026;48.562;14.440;2024-01-25T13:50:36;49.24;38.81;74.46;;
37223;Laerm;28026;48.562;14.440;2024-01-25T13:53:07;53.18;38.81;80.22;;
37223;Laerm;28026;48.562;14.440;2024-01-25T13:55:38;65.91;38.21;89.91;;
37223;Laerm;28026;48.562;14.440;2024-01-25T13:58:10;62.48;38.21;89.58;;
37223;Laerm;28026;48.562;14.440;2024-01-25T14:00:40;58.81;37.12;87.05;;
37223;Laerm;28026;48.562;14.440;2024-01-25T14:03:11;58.76;37.52;87.87;;
37223;Laerm;28026;48.562;14.440;2024-01-25T14:05:43;65.08;37.70;97.91;;
37223;Laerm;28026;48.562;14.440;2024-01-25T14:08:14;61.82;36.69;85.91;;
37223;Laerm;28026;48.562;14.440;2024-01-25T14:10:44;63.07;35.94;91.27;;
37223;Laerm;28026;48.562;14.440;2024-01-25T14:13:15;59.86;37.52;91.62;;
37223;Laerm;28026;48.562;14.440;2024-01-25T14:15:46;62.61;37.70;92.25;;
37223;Laerm;28026;48.562;14.440;2024-01-25T14:18:17;57.13;37.70;82.18;;
37223;Laerm;28026;48.562;14.440;2024-01-25T14:20:48;47.81;36.20;74.51;;